Wetterdaten: Freitag, 30.07.2021
Datum Zeit Temp. A. Temp. A. min Temp. A. max Feuchte A. Bod.Feucht 4 Luftdruck Regen Wind Richtung Richtung Sonnenschein ET Solar Taupunkt Windchill Windben Empfang
30.07.2021 00:00 13,6 C 13,6 C 13,7 C 86 % 0 cb 1013,2 hPa 0,0 l/m 0,0 km/h (0 Bft) N 0 0 min 0,000 mm 0 W/m 11,3 C 13,6 C 0,0 km/h (0 Bft) 100,00 %
30.07.2021 00:10 13,4 C 13,4 C 13,6 C 86 % 0 cb 1013,1 hPa 0,0 l/m 0,0 km/h (0 Bft) W-SW 247 0 min 0,000 mm 0 W/m 11,1 C 13,4 C 1,6 km/h (1 Bft) 99,56 %
30.07.2021 00:20 13,2 C 13,2 C 13,4 C 86 % 0 cb 1013,2 hPa 0,0 l/m 0,0 km/h (0 Bft) N 0 0 min 0,000 mm 0 W/m 10,9 C 13,2 C 0,0 km/h (0 Bft) 100,00 %
30.07.2021 00:30 13,0 C 13,0 C 13,2 C 86 % 0 cb 1013,1 hPa 0,0 l/m 0,0 km/h (0 Bft) N 0 0 min 0,000 mm 0 W/m 10,7 C 13,0 C 0,0 km/h (0 Bft) 100,00 %
30.07.2021 00:40 12,8 C 12,8 C 13,0 C 87 % 0 cb 1013,2 hPa 0,0 l/m 0,0 km/h (0 Bft) N 0 0 min 0,000 mm 0 W/m 10,7 C 12,8 C 0,0 km/h (0 Bft) 100,00 %
30.07.2021 00:50 12,6 C 12,6 C 12,8 C 87 % 0 cb 1013,2 hPa 0,0 l/m 0,0 km/h (0 Bft) N 0 0 min 0,000 mm 0 W/m 10,5 C 12,6 C 0,0 km/h (0 Bft) 100,00 %
30.07.2021 01:00 12,4 C 12,4 C 12,6 C 88 % 0 cb 1013,3 hPa 0,0 l/m 0,0 km/h (0 Bft) N 0 0 min 0,000 mm 0 W/m 10,5 C 12,4 C 0,0 km/h (0 Bft) 100,00 %
30.07.2021 01:10 12,3 C 12,3 C 12,4 C 89 % 0 cb 1013,2 hPa 0,0 l/m 0,0 km/h (0 Bft) N 0 0 min 0,000 mm 0 W/m 10,5 C 12,3 C 0,0 km/h (0 Bft) 100,00 %
30.07.2021 01:20 12,2 C 12,2 C 12,3 C 89 % 0 cb 1013,2 hPa 0,0 l/m 0,0 km/h (0 Bft) N 0 0 min 0,000 mm 0 W/m 10,4 C 12,2 C 0,0 km/h (0 Bft) 100,00 %
30.07.2021 01:30 12,0 C 12,0 C 12,2 C 89 % 0 cb 1013,2 hPa 0,0 l/m 0,0 km/h (0 Bft) N 0 0 min 0,000 mm 0 W/m 10,2 C 12,0 C 0,0 km/h (0 Bft) 100,00 %
30.07.2021 01:40 11,8 C 11,8 C 12,0 C 89 % 0 cb 1013,1 hPa 0,0 l/m 0,0 km/h (0 Bft) N 0 0 min 0,000 mm 0 W/m 10,0 C 11,8 C 0,0 km/h (0 Bft) 100,00 %
30.07.2021 01:50 11,7 C 11,7 C 11,8 C 90 % 0 cb 1013,1 hPa 0,0 l/m 0,0 km/h (0 Bft) W-SW 247 0 min 0,000 mm 0 W/m 10,1 C 11,7 C 1,6 km/h (1 Bft) 100,00 %
30.07.2021 02:00 11,7 C 11,7 C 11,7 C 90 % 0 cb 1013,1 hPa 0,0 l/m 0,0 km/h (0 Bft) W-SW 247 0 min 0,000 mm 0 W/m 10,1 C 11,7 C 1,6 km/h (1 Bft) 100,00 %
30.07.2021 02:10 11,6 C 11,6 C 11,7 C 90 % 0 cb 1013,0 hPa 0,0 l/m 0,0 km/h (0 Bft) N 0 0 min 0,000 mm 0 W/m 10,0 C 11,6 C 0,0 km/h (0 Bft) 100,00 %
30.07.2021 02:20 11,4 C 11,4 C 11,6 C 90 % 0 cb 1012,9 hPa 0,0 l/m 0,0 km/h (0 Bft) N 0 0 min 0,000 mm 0 W/m 9,8 C 11,4 C 0,0 km/h (0 Bft) 100,00 %
30.07.2021 02:30 11,3 C 11,3 C 11,4 C 90 % 0 cb 1013,0 hPa 0,0 l/m 0,0 km/h (0 Bft) N 0 0 min 0,000 mm 0 W/m 9,7 C 11,3 C 0,0 km/h (0 Bft) 99,56 %
30.07.2021 02:40 11,2 C 11,1 C 11,3 C 91 % 0 cb 1012,9 hPa 0,0 l/m 0,0 km/h (0 Bft) N 0 0 min 0,000 mm 0 W/m 9,8 C 11,2 C 0,0 km/h (0 Bft) 100,00 %
30.07.2021 02:50 11,1 C 11,0 C 11,1 C 91 % 0 cb 1012,9 hPa 0,0 l/m 0,0 km/h (0 Bft) N 0 0 min 0,000 mm 0 W/m 9,7 C 11,1 C 0,0 km/h (0 Bft) 100,00 %
30.07.2021 03:00 10,9 C 10,9 C 11,1 C 91 % 0 cb 1012,8 hPa 0,0 l/m 0,0 km/h (0 Bft) N 0 0 min 0,000 mm 0 W/m 9,5 C 10,9 C 0,0 km/h (0 Bft) 100,00 %
30.07.2021 03:10 10,8 C 10,7 C 10,9 C 91 % 0 cb 1012,8 hPa 0,0 l/m 0,0 km/h (0 Bft) N 0 0 min 0,000 mm 0 W/m 9,4 C 10,8 C 0,0 km/h (0 Bft) 99,12 %
30.07.2021 03:20 10,6 C 10,6 C 10,7 C 91 % 0 cb 1012,8 hPa 0,0 l/m 0,0 km/h (0 Bft) N 0 0 min 0,000 mm 0 W/m 9,2 C 10,6 C 0,0 km/h (0 Bft) 100,00 %
30.07.2021 03:30 10,5 C 10,5 C 10,6 C 92 % 0 cb 1012,7 hPa 0,0 l/m 0,0 km/h (0 Bft) N 0 0 min 0,000 mm 0 W/m 9,3 C 10,5 C 0,0 km/h (0 Bft) 100,00 %
30.07.2021 03:40 10,5 C 10,4 C 10,5 C 92 % 0 cb 1012,7 hPa 0,0 l/m 0,0 km/h (0 Bft) N 0 0 min 0,000 mm 0 W/m 9,3 C 10,5 C 0,0 km/h (0 Bft) 100,00 %
30.07.2021 03:50 10,4 C 10,4 C 10,5 C 92 % 0 cb 1012,8 hPa 0,0 l/m 0,0 km/h (0 Bft) N 0 0 min 0,000 mm 0 W/m 9,2 C 10,4 C 0,0 km/h (0 Bft) 100,00 %
30.07.2021 04:00 10,3 C 10,3 C 10,4 C 92 % 0 cb 1012,6 hPa 0,0 l/m 0,0 km/h (0 Bft) N 0 0 min 0,000 mm 0 W/m 9,1 C 10,3 C 0,0 km/h (0 Bft) 100,00 %
30.07.2021 04:10 10,2 C 10,2 C 10,3 C 93 % 0 cb 1012,6 hPa 0,0 l/m 0,0 km/h (0 Bft) N 0 0 min 0,000 mm 0 W/m 9,1 C 10,2 C 0,0 km/h (0 Bft) 99,56 %
30.07.2021 04:20 10,2 C 10,2 C 10,2 C 93 % 0 cb 1012,5 hPa 0,0 l/m 0,0 km/h (0 Bft) N 0 0 min 0,000 mm 0 W/m 9,1 C 10,2 C 0,0 km/h (0 Bft) 100,00 %
30.07.2021 04:30 10,1 C 10,1 C 10,2 C 93 % 0 cb 1012,5 hPa 0,0 l/m 0,0 km/h (0 Bft) N 0 0 min 0,000 mm 0 W/m 9,0 C 10,1 C 0,0 km/h (0 Bft) 100,00 %
30.07.2021 04:40 10,0 C 10,0 C 10,1 C 93 % 0 cb 1012,4 hPa 0,0 l/m 0,0 km/h (0 Bft) N 0 0 min 0,000 mm 0 W/m 8,9 C 10,0 C 0,0 km/h (0 Bft) 100,00 %
30.07.2021 04:50 9,9 C 9,9 C 10,0 C 93 % 0 cb 1012,4 hPa 0,0 l/m 0,0 km/h (0 Bft) N 0 0 min 0,000 mm 0 W/m 8,8 C 9,9 C 0,0 km/h (0 Bft) 100,00 %
30.07.2021 05:00 9,9 C 9,9 C 9,9 C 93 % 0 cb 1012,4 hPa 0,0 l/m 0,0 km/h (0 Bft) N 0 0 min 0,000 mm 0 W/m 8,8 C 9,9 C 0,0 km/h (0 Bft) 100,00 %
30.07.2021 05:10 9,9 C 9,9 C 9,9 C 94 % 0 cb 1012,4 hPa 0,0 l/m 0,0 km/h (0 Bft) N 0 0 min 0,000 mm 0 W/m 9,0 C 9,9 C 0,0 km/h (0 Bft) 100,00 %
30.07.2021 05:20 9,8 C 9,8 C 9,9 C 94 % 0 cb 1012,3 hPa 0,0 l/m 0,0 km/h (0 Bft) N 0 0 min 0,000 mm 0 W/m 8,9 C 9,8 C 0,0 km/h (0 Bft) 100,00 %
30.07.2021 05:30 9,8 C 9,8 C 9,8 C 94 % 0 cb 1012,2 hPa 0,0 l/m 0,0 km/h (0 Bft) N 0 0 min 0,000 mm 0 W/m 8,9 C 9,8 C 0,0 km/h (0 Bft) 100,00 %
30.07.2021 05:40 9,9 C 9,8 C 9,9 C 94 % 0 cb 1012,2 hPa 0,0 l/m 0,0 km/h (0 Bft) N 0 0 min 0,000 mm 0 W/m 9,0 C 9,9 C 0,0 km/h (0 Bft) 100,00 %
30.07.2021 05:50 9,8 C 9,8 C 9,9 C 94 % 0 cb 1012,2 hPa 0,0 l/m 0,0 km/h (0 Bft) N 0 0 min 0,000 mm 0 W/m 8,9 C 9,8 C 0,0 km/h (0 Bft) 100,00 %
30.07.2021 06:00 9,8 C 9,8 C 9,8 C 94 % 0 cb 1012,2 hPa 0,0 l/m 0,0 km/h (0 Bft) SW 225 0 min 0,000 mm 0 W/m 8,9 C 9,8 C 1,6 km/h (1 Bft) 100,00 %
30.07.2021 06:10 9,9 C 9,8 C 9,9 C 95 % 0 cb 1012,1 hPa 0,0 l/m 0,0 km/h (0 Bft) SW 225 0 min 0,000 mm 7 W/m 9,1 C 9,9 C 1,6 km/h (1 Bft) 100,00 %
30.07.2021 06:20 9,9 C 9,9 C 10,0 C 95 % 0 cb 1012,1 hPa 0,0 l/m 0,0 km/h (0 Bft) N 0 0 min 0,000 mm 9 W/m 9,1 C 9,9 C 0,0 km/h (0 Bft) 99,12 %
30.07.2021 06:30 9,9 C 9,9 C 10,0 C 95 % 0 cb 1012,2 hPa 0,0 l/m 0,0 km/h (0 Bft) N 0 0 min 0,000 mm 12 W/m 9,1 C 9,9 C 0,0 km/h (0 Bft) 100,00 %
30.07.2021 06:40 10,0 C 9,9 C 10,0 C 95 % 0 cb 1012,2 hPa 0,0 l/m 0,0 km/h (0 Bft) N 0 0 min 0,000 mm 21 W/m 9,2 C 10,0 C 0,0 km/h (0 Bft) 100,00 %
30.07.2021 06:50 10,2 C 10,0 C 10,2 C 95 % 0 cb 1012,1 hPa 0,0 l/m 0,0 km/h (0 Bft) SW 225 0 min 0,000 mm 25 W/m 9,4 C 10,2 C 3,2 km/h (1 Bft) 100,00 %
30.07.2021 07:00 10,4 C 10,2 C 10,4 C 96 % 0 cb 1012,2 hPa 0,0 l/m 0,0 km/h (0 Bft) N 0 0 min 0,000 mm 28 W/m 9,8 C 10,4 C 0,0 km/h (0 Bft) 100,00 %
30.07.2021 07:10 10,6 C 10,4 C 10,6 C 96 % 0 cb 1012,2 hPa 0,0 l/m 0,0 km/h (0 Bft) N 0 0 min 0,000 mm 32 W/m 10,0 C 10,6 C 0,0 km/h (0 Bft) 100,00 %
30.07.2021 07:20 10,7 C 10,6 C 10,7 C 95 % 0 cb 1012,1 hPa 0,0 l/m 0,0 km/h (0 Bft) N 0 0 min 0,000 mm 53 W/m 9,9 C 10,7 C 0,0 km/h (0 Bft) 100,00 %
30.07.2021 07:30 10,8 C 10,7 C 10,8 C 96 % 0 cb 1012,2 hPa 0,0 l/m 0,0 km/h (0 Bft) N 0 0 min 0,000 mm 132 W/m 10,2 C 10,8 C 0,0 km/h (0 Bft) 100,00 %
30.07.2021 07:40 11,5 C 10,8 C 11,5 C 97 % 0 cb 1012,1 hPa 0,0 l/m 0,0 km/h (0 Bft) N 0 10 min 0,000 mm 174 W/m 11,0 C 11,5 C 0,0 km/h (0 Bft) 100,00 %
30.07.2021 07:50 12,4 C 11,5 C 12,4 C 97 % 0 cb 1012,0 hPa 0,0 l/m 0,0 km/h (0 Bft) N 0 10 min 0,000 mm 199 W/m 11,9 C 12,4 C 0,0 km/h (0 Bft) 100,00 %
30.07.2021 08:00 12,9 C 12,4 C 12,9 C 95 % 0 cb 1012,1 hPa 0,0 l/m 0,0 km/h (0 Bft) S-SW 202 10 min 0,051 mm 225 W/m 12,1 C 12,9 C 1,6 km/h (1 Bft) 100,00 %
30.07.2021 08:10 13,9 C 12,9 C 13,9 C 94 % 0 cb 1012,0 hPa 0,0 l/m 0,0 km/h (0 Bft) S-SW 202 10 min 0,000 mm 255 W/m 12,9 C 13,9 C 1,6 km/h (1 Bft) 100,00 %
30.07.2021 08:20 15,0 C 13,9 C 15,0 C 90 % 0 cb 1012,0 hPa 0,0 l/m 0,0 km/h (0 Bft) N 0 10 min 0,000 mm 290 W/m 13,4 C 15,0 C 0,0 km/h (0 Bft) 100,00 %
30.07.2021 08:30 16,1 C 15,1 C 16,1 C 84 % 0 cb 1012,0 hPa 0,0 l/m 0,0 km/h (0 Bft) N 0 10 min 0,000 mm 318 W/m 13,4 C 16,1 C 0,0 km/h (0 Bft) 100,00 %
30.07.2021 08:40 17,2 C 16,1 C 17,2 C 80 % 0 cb 1011,9 hPa 0,0 l/m 0,0 km/h (0 Bft) N 0 10 min 0,000 mm 336 W/m 13,7 C 17,2 C 0,0 km/h (0 Bft) 100,00 %
30.07.2021 08:50 18,1 C 17,2 C 18,1 C 77 % 0 cb 1011,9 hPa 0,0 l/m 0,0 km/h (0 Bft) N 0 10 min 0,000 mm 357 W/m 14,0 C 18,1 C 0,0 km/h (0 Bft) 100,00 %
30.07.2021 09:00 18,6 C 18,1 C 18,6 C 74 % 0 cb 1012,0 hPa 0,0 l/m 0,0 km/h (0 Bft) S-SW 202 10 min 0,178 mm 387 W/m 13,9 C 18,6 C 1,6 km/h (1 Bft) 100,00 %
30.07.2021 09:10 19,0 C 18,6 C 19,0 C 70 % 0 cb 1012,0 hPa 0,0 l/m 0,0 km/h (0 Bft) N 0 10 min 0,000 mm 417 W/m 13,4 C 19,0 C 0,0 km/h (0 Bft) 100,00 %
30.07.2021 09:20 19,4 C 19,0 C 19,4 C 67 % 0 cb 1012,0 hPa 0,0 l/m 0,0 km/h (0 Bft) N 0 10 min 0,000 mm 446 W/m 13,1 C 19,4 C 0,0 km/h (0 Bft) 99,56 %
30.07.2021 09:30 19,6 C 19,3 C 19,6 C 71 % 0 cb 1011,8 hPa 0,0 l/m 0,0 km/h (0 Bft) S-SW 202 10 min 0,000 mm 473 W/m 14,2 C 19,6 C 3,2 km/h (1 Bft) 100,00 %
30.07.2021 09:40 19,7 C 19,6 C 19,8 C 70 % 0 cb 1011,8 hPa 0,0 l/m 0,0 km/h (0 Bft) S-SW 202 10 min 0,000 mm 496 W/m 14,1 C 19,7 C 1,6 km/h (1 Bft) 100,00 %
30.07.2021 09:50 20,3 C 19,7 C 20,3 C 72 % 0 cb 1011,6 hPa 0,0 l/m 0,0 km/h (0 Bft) S-SW 202 10 min 0,000 mm 515 W/m 15,1 C 20,3 C 4,8 km/h (1 Bft) 100,00 %
30.07.2021 10:00 20,9 C 20,3 C 20,9 C 70 % 0 cb 1011,6 hPa 0,0 l/m 1,6 km/h (1 Bft) S-SW 202 10 min 0,279 mm 538 W/m 15,2 C 20,9 C 4,8 km/h (1 Bft) 100,00 %
30.07.2021 10:10 21,3 C 20,9 C 21,3 C 69 % 0 cb 1011,5 hPa 0,0 l/m 1,6 km/h (1 Bft) S-SW 202 10 min 0,000 mm 564 W/m 15,4 C 21,3 C 6,4 km/h (2 Bft) 100,00 %
30.07.2021 10:20 21,6 C 21,3 C 21,6 C 65 % 0 cb 1011,6 hPa 0,0 l/m 1,6 km/h (1 Bft) S-SW 202 10 min 0,000 mm 585 W/m 14,7 C 21,6 C 6,4 km/h (2 Bft) 99,56 %
30.07.2021 10:30 21,7 C 21,6 C 21,7 C 64 % 0 cb 1011,6 hPa 0,0 l/m 3,2 km/h (1 Bft) S-SW 202 10 min 0,000 mm 608 W/m 14,6 C 21,7 C 11,3 km/h (2 Bft) 100,00 %
30.07.2021 10:40 21,9 C 21,7 C 21,9 C 63 % 0 cb 1011,4 hPa 0,0 l/m 4,8 km/h (1 Bft) S 180 10 min 0,000 mm 629 W/m 14,5 C 21,9 C 14,5 km/h (3 Bft) 100,00 %
30.07.2021 10:50 22,3 C 21,9 C 22,3 C 64 % 0 cb 1011,4 hPa 0,0 l/m 4,8 km/h (1 Bft) S-SW 202 10 min 0,000 mm 654 W/m 15,2 C 22,3 C 16,1 km/h (3 Bft) 100,00 %
30.07.2021 11:00 22,4 C 22,3 C 22,4 C 61 % 0 cb 1011,5 hPa 0,0 l/m 8,0 km/h (2 Bft) S 180 10 min 0,381 mm 726 W/m 14,5 C 22,4 C 22,5 km/h (4 Bft) 100,00 %
30.07.2021 11:10 22,3 C 22,3 C 22,4 C 62 % 0 cb 1011,4 hPa 0,0 l/m 6,4 km/h (2 Bft) SW 225 10 min 0,000 mm 775 W/m 14,7 C 22,3 C 22,5 km/h (4 Bft) 100,00 %
30.07.2021 11:20 21,9 C 21,9 C 22,3 C 63 % 0 cb 1011,3 hPa 0,0 l/m 4,8 km/h (1 Bft) W-NW 292 10 min 0,000 mm 821 W/m 14,5 C 21,9 C 14,5 km/h (3 Bft) 100,00 %
30.07.2021 11:30 22,0 C 21,9 C 22,0 C 64 % 0 cb 1011,1 hPa 0,0 l/m 6,4 km/h (2 Bft) W 270 10 min 0,000 mm 800 W/m 14,9 C 22,0 C 17,7 km/h (3 Bft) 100,00 %
30.07.2021 11:40 21,7 C 21,7 C 22,1 C 62 % 0 cb 1011,0 hPa 0,0 l/m 8,0 km/h (2 Bft) W-SW 247 10 min 0,000 mm 877 W/m 14,1 C 21,7 C 17,7 km/h (3 Bft) 100,00 %
30.07.2021 11:50 21,7 C 21,6 C 21,7 C 65 % 0 cb 1010,9 hPa 0,0 l/m 6,4 km/h (2 Bft) W 270 10 min 0,000 mm 835 W/m 14,8 C 21,7 C 17,7 km/h (3 Bft) 100,00 %
30.07.2021 12:00 22,3 C 21,7 C 22,3 C 63 % 0 cb 1010,9 hPa 0,0 l/m 6,4 km/h (2 Bft) S 180 10 min 0,381 mm 796 W/m 14,9 C 22,3 C 17,7 km/h (3 Bft) 100,00 %
30.07.2021 12:10 22,8 C 22,3 C 22,8 C 63 % 0 cb 1010,8 hPa 0,0 l/m 6,4 km/h (2 Bft) S 180 10 min 0,000 mm 881 W/m 15,4 C 22,8 C 17,7 km/h (3 Bft) 100,00 %
30.07.2021 12:20 22,9 C 22,8 C 23,1 C 60 % 0 cb 1010,7 hPa 0,0 l/m 8,0 km/h (2 Bft) S 180 10 min 0,000 mm 923 W/m 14,7 C 22,9 C 19,3 km/h (3 Bft) 100,00 %
30.07.2021 12:30 22,2 C 22,2 C 22,9 C 62 % 0 cb 1010,7 hPa 0,0 l/m 8,0 km/h (2 Bft) W 270 10 min 0,000 mm 388 W/m 14,6 C 22,2 C 17,7 km/h (3 Bft) 100,00 %
30.07.2021 12:40 22,1 C 21,9 C 22,2 C 65 % 0 cb 1010,6 hPa 0,0 l/m 6,4 km/h (2 Bft) W-NW 292 10 min 0,000 mm 954 W/m 15,2 C 22,1 C 17,7 km/h (3 Bft) 99,56 %
30.07.2021 12:50 22,6 C 22,1 C 22,6 C 63 % 0 cb 1010,4 hPa 0,0 l/m 4,8 km/h (1 Bft) S-SW 202 10 min 0,000 mm 997 W/m 15,2 C 22,6 C 14,5 km/h (3 Bft) 99,12 %
30.07.2021 13:00 23,0 C 22,6 C 23,0 C 63 % 0 cb 1010,3 hPa 0,0 l/m 6,4 km/h (2 Bft) SW 225 10 min 0,381 mm 963 W/m 15,6 C 23,0 C 20,9 km/h (4 Bft) 100,00 %
30.07.2021 13:10 22,8 C 22,8 C 23,1 C 59 % 0 cb 1010,2 hPa 0,0 l/m 9,7 km/h (2 Bft) W 270 10 min 0,000 mm 902 W/m 14,4 C 22,8 C 19,3 km/h (3 Bft) 100,00 %
30.07.2021 13:20 23,2 C 22,8 C 23,2 C 61 % 0 cb 1010,1 hPa 0,0 l/m 6,4 km/h (2 Bft) W 270 10 min 0,000 mm 958 W/m 15,3 C 23,2 C 19,3 km/h (3 Bft) 100,00 %
30.07.2021 13:30 23,6 C 23,2 C 23,6 C 61 % 0 cb 1010,0 hPa 0,0 l/m 6,4 km/h (2 Bft) S-SW 202 10 min 0,000 mm 970 W/m 15,6 C 23,6 C 20,9 km/h (4 Bft) 100,00 %
30.07.2021 13:40 23,6 C 23,6 C 23,7 C 59 % 0 cb 1010,0 hPa 0,0 l/m 6,4 km/h (2 Bft) W 270 10 min 0,000 mm 940 W/m 15,1 C 23,6 C 17,7 km/h (3 Bft) 100,00 %
30.07.2021 13:50 23,2 C 23,2 C 23,6 C 59 % 0 cb 1010,0 hPa 0,0 l/m 6,4 km/h (2 Bft) W 270 10 min 0,000 mm 888 W/m 14,7 C 23,2 C 14,5 km/h (3 Bft) 100,00 %
30.07.2021 14:00 23,7 C 23,2 C 23,7 C 56 % 0 cb 1009,9 hPa 0,0 l/m 8,0 km/h (2 Bft) S 180 10 min 0,432 mm 954 W/m 14,4 C 23,7 C 19,3 km/h (3 Bft) 100,00 %
30.07.2021 14:10 23,6 C 23,6 C 23,8 C 55 % 0 cb 1009,7 hPa 0,0 l/m 8,0 km/h (2 Bft) S-SW 202 10 min 0,000 mm 267 W/m 14,0 C 23,6 C 24,1 km/h (4 Bft) 100,00 %
30.07.2021 14:20 23,7 C 23,4 C 23,7 C 59 % 0 cb 1009,5 hPa 0,0 l/m 8,0 km/h (2 Bft) SW 225 10 min 0,000 mm 937 W/m 15,2 C 23,7 C 20,9 km/h (4 Bft) 100,00 %
30.07.2021 14:30 24,3 C 23,7 C 24,3 C 54 % 0 cb 1009,3 hPa 0,0 l/m 9,7 km/h (2 Bft) S 180 10 min 0,000 mm 896 W/m 14,4 C 24,3 C 24,1 km/h (4 Bft) 100,00 %
30.07.2021 14:40 24,3 C 24,2 C 24,4 C 58 % 0 cb 1009,3 hPa 0,0 l/m 8,0 km/h (2 Bft) W 270 10 min 0,000 mm 960 W/m 15,5 C 24,3 C 20,9 km/h (4 Bft) 100,00 %
30.07.2021 14:50 24,4 C 24,3 C 24,4 C 57 % 0 cb 1009,2 hPa 0,0 l/m 9,7 km/h (2 Bft) S 180 10 min 0,000 mm 981 W/m 15,3 C 24,4 C 24,1 km/h (4 Bft) 100,00 %
30.07.2021 15:00 25,0 C 24,4 C 25,0 C 54 % 0 cb 1009,1 hPa 0,0 l/m 9,7 km/h (2 Bft) S 180 10 min 0,483 mm 958 W/m 15,0 C 25,0 C 25,7 km/h (4 Bft) 100,00 %
30.07.2021 15:10 25,1 C 25,0 C 25,1 C 54 % 0 cb 1009,1 hPa 0,0 l/m 11,3 km/h (2 Bft) S-SW 202 10 min 0,000 mm 921 W/m 15,1 C 25,1 C 29,0 km/h (5 Bft) 100,00 %
30.07.2021 15:20 25,0 C 25,0 C 25,1 C 56 % 0 cb 1008,9 hPa 0,0 l/m 9,7 km/h (2 Bft) W-SW 247 10 min 0,000 mm 918 W/m 15,6 C 25,0 C 20,9 km/h (4 Bft) 100,00 %
30.07.2021 15:30 24,8 C 24,8 C 25,0 C 55 % 0 cb 1008,8 hPa 0,0 l/m 9,7 km/h (2 Bft) SW 225 10 min 0,000 mm 898 W/m 15,1 C 24,8 C 22,5 km/h (4 Bft) 100,00 %
30.07.2021 15:40 24,7 C 24,7 C 24,8 C 57 % 0 cb 1008,7 hPa 0,0 l/m 9,7 km/h (2 Bft) SW 225 10 min 0,000 mm 840 W/m 15,6 C 24,7 C 24,1 km/h (4 Bft) 100,00 %
30.07.2021 15:50 24,8 C 24,7 C 24,8 C 57 % 0 cb 1008,6 hPa 0,0 l/m 8,0 km/h (2 Bft) W-SW 247 10 min 0,000 mm 775 W/m 15,7 C 24,8 C 29,0 km/h (5 Bft) 100,00 %
30.07.2021 16:00 24,7 C 24,7 C 24,8 C 56 % 0 cb 1008,5 hPa 0,0 l/m 8,0 km/h (2 Bft) W-SW 247 10 min 0,483 mm 738 W/m 15,3 C 24,7 C 24,1 km/h (4 Bft) 99,12 %
30.07.2021 16:10 24,9 C 24,7 C 24,9 C 54 % 0 cb 1008,5 hPa 0,0 l/m 9,7 km/h (2 Bft) W 270 10 min 0,000 mm 772 W/m 14,9 C 24,9 C 24,1 km/h (4 Bft) 100,00 %
30.07.2021 16:20 25,3 C 24,9 C 25,3 C 54 % 0 cb 1008,4 hPa 0,0 l/m 8,0 km/h (2 Bft) S 180 10 min 0,000 mm 715 W/m 15,3 C 25,3 C 24,1 km/h (4 Bft) 100,00 %
30.07.2021 16:30 25,3 C 25,3 C 25,3 C 53 % 0 cb 1008,5 hPa 0,0 l/m 6,4 km/h (2 Bft) SW 225 10 min 0,000 mm 719 W/m 15,0 C 25,3 C 27,4 km/h (4 Bft) 100,00 %
30.07.2021 16:40 24,9 C 24,9 C 25,3 C 54 % 0 cb 1008,5 hPa 0,0 l/m 8,0 km/h (2 Bft) S-SW 202 10 min 0,000 mm 707 W/m 14,9 C 24,9 C 22,5 km/h (4 Bft) 100,00 %
30.07.2021 16:50 24,9 C 24,9 C 24,9 C 53 % 0 cb 1008,6 hPa 0,0 l/m 8,0 km/h (2 Bft) W-SW 247 10 min 0,000 mm 640 W/m 14,6 C 24,9 C 22,5 km/h (4 Bft) 100,00 %
30.07.2021 17:00 24,8 C 24,8 C 24,9 C 55 % 0 cb 1008,4 hPa 0,0 l/m 8,0 km/h (2 Bft) SW 225 10 min 0,432 mm 684 W/m 15,1 C 24,8 C 24,1 km/h (4 Bft) 100,00 %
30.07.2021 17:10 24,6 C 24,6 C 24,8 C 53 % 0 cb 1008,4 hPa 0,0 l/m 8,0 km/h (2 Bft) W 270 10 min 0,000 mm 636 W/m 14,4 C 24,6 C 20,9 km/h (4 Bft) 100,00 %
30.07.2021 17:20 24,4 C 24,4 C 24,6 C 54 % 0 cb 1008,4 hPa 0,0 l/m 9,7 km/h (2 Bft) SW 225 10 min 0,000 mm 628 W/m 14,5 C 24,4 C 24,1 km/h (4 Bft) 100,00 %
30.07.2021 17:30 24,1 C 24,1 C 24,4 C 55 % 0 cb 1008,4 hPa 0,0 l/m 8,0 km/h (2 Bft) W 270 10 min 0,000 mm 578 W/m 14,5 C 24,1 C 17,7 km/h (3 Bft) 100,00 %
30.07.2021 17:40 23,9 C 23,9 C 24,1 C 55 % 0 cb 1008,3 hPa 0,0 l/m 9,7 km/h (2 Bft) W 270 10 min 0,000 mm 211 W/m 14,3 C 23,9 C 20,9 km/h (4 Bft) 100,00 %
30.07.2021 17:50 23,7 C 23,7 C 23,9 C 55 % 0 cb 1008,3 hPa 0,0 l/m 6,4 km/h (2 Bft) S-SW 202 10 min 0,000 mm 190 W/m 14,1 C 23,7 C 20,9 km/h (4 Bft) 100,00 %
30.07.2021 18:00 23,4 C 23,4 C 23,7 C 56 % 0 cb 1008,4 hPa 0,0 l/m 6,4 km/h (2 Bft) W-NW 292 10 min 0,254 mm 158 W/m 14,1 C 23,4 C 19,3 km/h (3 Bft) 100,00 %
30.07.2021 18:10 23,1 C 23,1 C 23,4 C 57 % 0 cb 1008,4 hPa 0,0 l/m 6,4 km/h (2 Bft) W-SW 247 0 min 0,000 mm 128 W/m 14,1 C 23,1 C 16,1 km/h (3 Bft) 100,00 %
30.07.2021 18:20 23,0 C 22,9 C 23,1 C 59 % 0 cb 1008,4 hPa 0,0 l/m 6,4 km/h (2 Bft) W 270 10 min 0,000 mm 160 W/m 14,5 C 23,0 C 14,5 km/h (3 Bft) 100,00 %
30.07.2021 18:30 23,0 C 23,0 C 23,1 C 58 % 0 cb 1008,3 hPa 0,0 l/m 6,4 km/h (2 Bft) W-SW 247 10 min 0,000 mm 169 W/m 14,3 C 23,0 C 24,1 km/h (4 Bft) 100,00 %
30.07.2021 18:40 22,9 C 22,9 C 23,0 C 59 % 0 cb 1008,3 hPa 0,0 l/m 6,4 km/h (2 Bft) S-SW 202 0 min 0,000 mm 144 W/m 14,5 C 22,9 C 19,3 km/h (3 Bft) 100,00 %
30.07.2021 18:50 22,7 C 22,7 C 22,9 C 58 % 0 cb 1008,4 hPa 0,0 l/m 8,0 km/h (2 Bft) W 270 0 min 0,000 mm 134 W/m 14,0 C 22,7 C 24,1 km/h (4 Bft) 100,00 %
30.07.2021 19:00 22,4 C 22,4 C 22,7 C 59 % 0 cb 1008,5 hPa 0,0 l/m 8,0 km/h (2 Bft) W 270 0 min 0,127 mm 118 W/m 14,0 C 22,4 C 20,9 km/h (4 Bft) 100,00 %
30.07.2021 19:10 22,2 C 22,2 C 22,4 C 59 % 0 cb 1008,5 hPa 0,0 l/m 9,7 km/h (2 Bft) W 270 0 min 0,000 mm 135 W/m 13,8 C 22,2 C 22,5 km/h (4 Bft) 100,00 %
30.07.2021 19:20 22,0 C 22,0 C 22,2 C 60 % 0 cb 1008,6 hPa 0,0 l/m 9,7 km/h (2 Bft) W 270 0 min 0,000 mm 97 W/m 13,9 C 22,0 C 22,5 km/h (4 Bft) 100,00 %
30.07.2021 19:30 21,8 C 21,8 C 22,0 C 61 % 0 cb 1008,5 hPa 0,0 l/m 8,0 km/h (2 Bft) W 270 0 min 0,000 mm 107 W/m 13,9 C 21,8 C 20,9 km/h (4 Bft) 100,00 %
30.07.2021 19:40 21,7 C 21,7 C 21,8 C 62 % 0 cb 1008,5 hPa 0,0 l/m 9,7 km/h (2 Bft) W 270 0 min 0,000 mm 77 W/m 14,1 C 21,7 C 22,5 km/h (4 Bft) 100,00 %
30.07.2021 19:50 21,6 C 21,6 C 21,7 C 62 % 0 cb 1008,5 hPa 0,0 l/m 4,8 km/h (1 Bft) W-SW 247 0 min 0,000 mm 77 W/m 14,0 C 21,6 C 14,5 km/h (3 Bft) 100,00 %
30.07.2021 20:00 21,6 C 21,5 C 21,6 C 63 % 0 cb 1008,4 hPa 0,0 l/m 4,8 km/h (1 Bft) W 270 0 min 0,102 mm 74 W/m 14,2 C 21,6 C 17,7 km/h (3 Bft) 100,00 %
30.07.2021 20:10 21,4 C 21,4 C 21,6 C 63 % 0 cb 1008,6 hPa 0,0 l/m 6,4 km/h (2 Bft) W 270 0 min 0,000 mm 67 W/m 14,1 C 21,4 C 17,7 km/h (3 Bft) 100,00 %
30.07.2021 20:20 21,3 C 21,3 C 21,4 C 63 % 0 cb 1008,5 hPa 0,0 l/m 6,4 km/h (2 Bft) W 270 0 min 0,000 mm 23 W/m 14,0 C 21,3 C 20,9 km/h (4 Bft) 100,00 %
30.07.2021 20:30 21,0 C 21,0 C 21,3 C 64 % 0 cb 1008,6 hPa 0,0 l/m 6,4 km/h (2 Bft) W-SW 247 0 min 0,000 mm 19 W/m 13,9 C 21,0 C 20,9 km/h (4 Bft) 100,00 %
30.07.2021 20:40 20,7 C 20,7 C 21,0 C 65 % 0 cb 1008,7 hPa 0,0 l/m 6,4 km/h (2 Bft) W 270 0 min 0,000 mm 14 W/m 13,9 C 20,7 C 16,1 km/h (3 Bft) 100,00 %
30.07.2021 20:50 20,4 C 20,4 C 20,7 C 67 % 0 cb 1008,8 hPa 0,0 l/m 4,8 km/h (1 Bft) W 270 0 min 0,000 mm 11 W/m 14,1 C 20,4 C 17,7 km/h (3 Bft) 99,56 %
30.07.2021 21:00 20,1 C 20,1 C 20,4 C 67 % 0 cb 1008,9 hPa 0,0 l/m 6,4 km/h (2 Bft) W 270 0 min 0,051 mm 11 W/m 13,8 C 20,1 C 17,7 km/h (3 Bft) 100,00 %
30.07.2021 21:10 19,8 C 19,8 C 20,1 C 68 % 0 cb 1009,0 hPa 0,0 l/m 4,8 km/h (1 Bft) W 270 0 min 0,000 mm 7 W/m 13,7 C 19,8 C 19,3 km/h (3 Bft) 100,00 %
30.07.2021 21:20 19,6 C 19,6 C 19,8 C 69 % 0 cb 1008,9 hPa 0,0 l/m 4,8 km/h (1 Bft) W 270 0 min 0,000 mm 0 W/m 13,8 C 19,6 C 17,7 km/h (3 Bft) 100,00 %
30.07.2021 21:30 19,4 C 19,4 C 19,6 C 70 % 0 cb 1009,0 hPa 0,0 l/m 4,8 km/h (1 Bft) W 270 0 min 0,000 mm 0 W/m 13,8 C 19,4 C 16,1 km/h (3 Bft) 100,00 %
30.07.2021 21:40 19,2 C 19,2 C 19,4 C 71 % 0 cb 1009,1 hPa 0,0 l/m 3,2 km/h (1 Bft) W 270 0 min 0,000 mm 0 W/m 13,8 C 19,2 C 11,3 km/h (2 Bft) 100,00 %
30.07.2021 21:50 19,0 C 19,0 C 19,2 C 71 % 0 cb 1009,2 hPa 0,0 l/m 4,8 km/h (1 Bft) W 270 0 min 0,000 mm 0 W/m 13,6 C 19,0 C 17,7 km/h (3 Bft) 100,00 %
30.07.2021 22:00 18,9 C 18,9 C 19,0 C 72 % 0 cb 1009,4 hPa 0,0 l/m 4,8 km/h (1 Bft) W 270 0 min 0,025 mm 0 W/m 13,7 C 18,9 C 16,1 km/h (3 Bft) 100,00 %
30.07.2021 22:10 18,7 C 18,7 C 18,9 C 71 % 0 cb 1009,4 hPa 0,0 l/m 4,8 km/h (1 Bft) W 270 0 min 0,000 mm 0 W/m 13,3 C 18,7 C 14,5 km/h (3 Bft) 100,00 %
30.07.2021 22:20 18,6 C 18,6 C 18,8 C 71 % 0 cb 1009,6 hPa 0,0 l/m 3,2 km/h (1 Bft) W 270 0 min 0,000 mm 0 W/m 13,2 C 18,6 C 16,1 km/h (3 Bft) 100,00 %
30.07.2021 22:30 18,3 C 18,3 C 18,6 C 72 % 0 cb 1009,7 hPa 0,0 l/m 3,2 km/h (1 Bft) W-SW 247 0 min 0,000 mm 0 W/m 13,2 C 18,3 C 14,5 km/h (3 Bft) 100,00 %
30.07.2021 22:40 18,1 C 18,1 C 18,3 C 73 % 0 cb 1009,7 hPa 0,0 l/m 3,2 km/h (1 Bft) W 270 0 min 0,000 mm 0 W/m 13,2 C 18,1 C 11,3 km/h (2 Bft) 100,00 %
30.07.2021 22:50 17,9 C 17,9 C 18,1 C 73 % 0 cb 1009,8 hPa 0,0 l/m 3,2 km/h (1 Bft) W 270 0 min 0,000 mm 0 W/m 13,0 C 17,9 C 9,7 km/h (2 Bft) 100,00 %
30.07.2021 23:00 17,8 C 17,8 C 17,9 C 73 % 0 cb 1009,9 hPa 0,0 l/m 4,8 km/h (1 Bft) W 270 0 min 0,025 mm 0 W/m 12,9 C 17,8 C 11,3 km/h (2 Bft) 100,00 %
30.07.2021 23:10 17,7 C 17,7 C 17,8 C 73 % 0 cb 1009,8 hPa 0,0 l/m 3,2 km/h (1 Bft) W-SW 247 0 min 0,000 mm 0 W/m 12,8 C 17,7 C 14,5 km/h (3 Bft) 100,00 %
30.07.2021 23:20 17,4 C 17,4 C 17,7 C 74 % 0 cb 1009,9 hPa 0,0 l/m 1,6 km/h (1 Bft) W-SW 247 0 min 0,000 mm 0 W/m 12,7 C 17,4 C 11,3 km/h (2 Bft) 100,00 %
30.07.2021 23:30 17,2 C 17,2 C 17,4 C 74 % 0 cb 1009,9 hPa 0,0 l/m 1,6 km/h (1 Bft) W-SW 247 0 min 0,000 mm 0 W/m 12,5 C 17,2 C 3,2 km/h (1 Bft) 100,00 %
30.07.2021 23:40 16,8 C 16,8 C 17,2 C 76 % 0 cb 1009,9 hPa 0,0 l/m 0,0 km/h (0 Bft) W-SW 247 0 min 0,000 mm 0 W/m 12,5 C 16,8 C 4,8 km/h (1 Bft) 100,00 %
30.07.2021 23:50 16,3 C 16,3 C 16,8 C 77 % 0 cb 1010,0 hPa 0,0 l/m 0,0 km/h (0 Bft) N 0 0 min 0,000 mm 0 W/m 12,3 C 16,3 C 0,0 km/h (0 Bft) 100,00 %
_ Min-Zeit 05:20 05:20 05:30 16:30 00:00 17:40 - 00:00 - - - - - 04:50 05:20 00:00 03:10
Minimum _ 9,8 C 9,8 C 9,8 C 53 % 0 cb 1008,3 hPa - 0,0 km/h (0 Bft) - - - - - 8,8 C 9,8 C 0,0 km/h (0 Bft) 99,12 %
_ Max-Zeit 16:20 16:30 16:20 07:40 00:00 01:00 00:00 15:10 - - 07:40 15:00 12:50 15:50 16:20 15:10 00:00
Maximum _ 25,3 C 25,3 C 25,3 C 97 % 0 cb 1013,3 hPa 0,0 l/m 11,3 km/h
S-SW (2 Bft)
- - 10 min 0,483 mm 997 W/m 15,7 C 25,3 C 29,0 km/h
W-SW (5 Bft)
100,00 %
Durchschnitt _ 18,0 C 17,9 C 18,1 C 73 % 0 cb 1010,7 hPa #0,0 l/m 3,7 km/h (1 Bft) W - #10:50 h #4,065 mm 477 W/m 12,8 C 18,0 C 10,8 km/h (2 Bft) 99,95 %
Wetterstation Gdesweiler